sensor_id;sensor_type;location;lat;lon;timestamp;P1;durP1;ratioP1;P2;durP2;ratioP2
27543;SDS011;17996;51.056;3.656;2023-02-03T00:00:45;25.23;;;5.72;;
27543;SDS011;17996;51.056;3.656;2023-02-03T00:03:11;31.60;;;6.32;;
27543;SDS011;17996;51.056;3.656;2023-02-03T00:05:37;23.50;;;4.65;;
27543;SDS011;17996;51.056;3.656;2023-02-03T00:08:04;24.58;;;5.10;;
27543;SDS011;17996;51.056;3.656;2023-02-03T00:10:32;27.65;;;6.20;;
27543;SDS011;17996;51.056;3.656;2023-02-03T00:12:59;25.08;;;5.45;;
27543;SDS011;17996;51.056;3.656;2023-02-03T00:15:25;27.17;;;4.78;;
27543;SDS011;17996;51.056;3.656;2023-02-03T00:17:51;29.48;;;5.38;;
27543;SDS011;17996;51.056;3.656;2023-02-03T00:20:17;18.30;;;4.45;;
27543;SDS011;17996;51.056;3.656;2023-02-03T00:22:43;16.45;;;3.80;;
27543;SDS011;17996;51.056;3.656;2023-02-03T00:25:08;20.58;;;5.35;;
27543;SDS011;17996;51.056;3.656;2023-02-03T00:27:34;18.42;;;3.83;;
27543;SDS011;17996;51.056;3.656;2023-02-03T00:30:00;20.80;;;4.63;;
27543;SDS011;17996;51.056;3.656;2023-02-03T00:32:25;21.33;;;4.72;;
27543;SDS011;17996;51.056;3.656;2023-02-03T00:34:51;21.60;;;4.40;;
27543;SDS011;17996;51.056;3.656;2023-02-03T00:37:17;23.05;;;4.10;;
27543;SDS011;17996;51.056;3.656;2023-02-03T00:39:42;16.95;;;3.45;;
27543;SDS011;17996;51.056;3.656;2023-02-03T00:42:08;19.77;;;3.65;;
27543;SDS011;17996;51.056;3.656;2023-02-03T00:44:33;18.83;;;3.90;;
27543;SDS011;17996;51.056;3.656;2023-02-03T00:46:59;17.23;;;4.15;;
27543;SDS011;17996;51.056;3.656;2023-02-03T00:49:25;16.45;;;3.75;;
27543;SDS011;17996;51.056;3.656;2023-02-03T00:51:51;14.25;;;3.92;;
27543;SDS011;17996;51.056;3.656;2023-02-03T00:54:17;17.30;;;3.63;;
27543;SDS011;17996;51.056;3.656;2023-02-03T00:56:42;24.58;;;3.95;;
27543;SDS011;17996;51.056;3.656;2023-02-03T00:59:08;20.60;;;3.88;;
27543;SDS011;17996;51.056;3.656;2023-02-03T01:01:34;17.63;;;3.65;;
27543;SDS011;17996;51.056;3.656;2023-02-03T01:04:00;14.55;;;3.25;;
27543;SDS011;17996;51.056;3.656;2023-02-03T01:06:27;14.05;;;4.10;;
27543;SDS011;17996;51.056;3.656;2023-02-03T01:08:53;16.42;;;3.50;;
27543;SDS011;17996;51.056;3.656;2023-02-03T01:11:23;16.23;;;3.33;;
27543;SDS011;17996;51.056;3.656;2023-02-03T01:13:52;17.83;;;3.50;;
27543;SDS011;17996;51.056;3.656;2023-02-03T01:16:19;21.10;;;3.85;;
27543;SDS011;17996;51.056;3.656;2023-02-03T01:18:46;17.73;;;3.30;;
27543;SDS011;17996;51.056;3.656;2023-02-03T01:21:14;17.05;;;3.83;;
27543;SDS011;17996;51.056;3.656;2023-02-03T01:23:42;16.23;;;3.50;;
27543;SDS011;17996;51.056;3.656;2023-02-03T01:26:09;16.65;;;3.47;;
27543;SDS011;17996;51.056;3.656;2023-02-03T01:28:37;14.98;;;3.50;;
27543;SDS011;17996;51.056;3.656;2023-02-03T01:31:13;20.05;;;3.45;;
27543;SDS011;17996;51.056;3.656;2023-02-03T01:33:41;18.27;;;3.88;;
27543;SDS011;17996;51.056;3.656;2023-02-03T01:36:10;16.40;;;3.60;;
27543;SDS011;17996;51.056;3.656;2023-02-03T01:38:36;17.80;;;3.20;;
27543;SDS011;17996;51.056;3.656;2023-02-03T01:41:03;17.20;;;4.45;;
27543;SDS011;17996;51.056;3.656;2023-02-03T01:43:32;19.57;;;3.00;;
27543;SDS011;17996;51.056;3.656;2023-02-03T01:46:01;15.82;;;2.90;;
27543;SDS011;17996;51.056;3.656;2023-02-03T01:48:45;15.15;;;3.28;;
27543;SDS011;17996;51.056;3.656;2023-02-03T01:51:11;13.73;;;3.15;;
27543;SDS011;17996;51.056;3.656;2023-02-03T01:53:37;14.25;;;3.20;;
27543;SDS011;17996;51.056;3.656;2023-02-03T01:56:04;14.05;;;2.80;;
27543;SDS011;17996;51.056;3.656;2023-02-03T01:58:31;25.23;;;4.03;;
27543;SDS011;17996;51.056;3.656;2023-02-03T02:01:00;13.57;;;2.97;;
27543;SDS011;17996;51.056;3.656;2023-02-03T02:03:37;16.08;;;2.95;;
27543;SDS011;17996;51.056;3.656;2023-02-03T02:06:08;13.68;;;3.55;;
27543;SDS011;17996;51.056;3.656;2023-02-03T02:08:36;19.33;;;3.00;;
27543;SDS011;17996;51.056;3.656;2023-02-03T02:11:04;13.07;;;3.35;;
27543;SDS011;17996;51.056;3.656;2023-02-03T02:13:33;17.40;;;2.75;;
27543;SDS011;17996;51.056;3.656;2023-02-03T02:36:18;12.18;;;3.20;;
27543;SDS011;17996;51.056;3.656;2023-02-03T02:42:14;25.75;;;3.33;;
27543;SDS011;17996;51.056;3.656;2023-02-03T02:44:23;10.98;;;2.40;;
27543;SDS011;17996;51.056;3.656;2023-02-03T02:46:57;15.13;;;3.42;;
27543;SDS011;17996;51.056;3.656;2023-02-03T02:51:59;14.27;;;4.07;;
27543;SDS011;17996;51.056;3.656;2023-02-03T02:54:27;17.98;;;2.65;;
27543;SDS011;17996;51.056;3.656;2023-02-03T02:56:55;13.23;;;3.10;;
27543;SDS011;17996;51.056;3.656;2023-02-03T02:59:24;18.92;;;3.10;;
27543;SDS011;17996;51.056;3.656;2023-02-03T03:01:50;14.70;;;3.00;;
27543;SDS011;17996;51.056;3.656;2023-02-03T03:04:16;11.25;;;3.10;;
27543;SDS011;17996;51.056;3.656;2023-02-03T03:06:51;15.93;;;3.13;;
27543;SDS011;17996;51.056;3.656;2023-02-03T03:12:21;11.40;;;2.75;;
27543;SDS011;17996;51.056;3.656;2023-02-03T03:14:52;10.48;;;2.63;;
27543;SDS011;17996;51.056;3.656;2023-02-03T03:17:29;19.13;;;2.88;;
27543;SDS011;17996;51.056;3.656;2023-02-03T03:19:59;6.80;;;1.90;;
27543;SDS011;17996;51.056;3.656;2023-02-03T03:22:32;12.93;;;2.58;;
27543;SDS011;17996;51.056;3.656;2023-02-03T03:25:11;8.65;;;2.33;;
27543;SDS011;17996;51.056;3.656;2023-02-03T03:27:47;15.32;;;2.10;;
27543;SDS011;17996;51.056;3.656;2023-02-03T03:30:26;7.45;;;2.30;;
27543;SDS011;17996;51.056;3.656;2023-02-03T03:32:59;15.43;;;2.60;;
27543;SDS011;17996;51.056;3.656;2023-02-03T03:35:37;15.40;;;2.80;;
27543;SDS011;17996;51.056;3.656;2023-02-03T03:38:20;16.80;;;2.53;;
27543;SDS011;17996;51.056;3.656;2023-02-03T03:41:06;14.43;;;2.30;;
27543;SDS011;17996;51.056;3.656;2023-02-03T03:43:39;7.03;;;2.05;;
27543;SDS011;17996;51.056;3.656;2023-02-03T03:46:12;9.85;;;1.98;;
27543;SDS011;17996;51.056;3.656;2023-02-03T03:53:59;11.70;;;2.30;;
27543;SDS011;17996;51.056;3.656;2023-02-03T03:56:37;13.00;;;1.90;;
27543;SDS011;17996;51.056;3.656;2023-02-03T03:59:07;11.07;;;2.72;;
27543;SDS011;17996;51.056;3.656;2023-02-03T04:01:38;12.52;;;1.85;;
27543;SDS011;17996;51.056;3.656;2023-02-03T04:04:06;9.73;;;2.40;;
27543;SDS011;17996;51.056;3.656;2023-02-03T04:09:00;14.88;;;3.00;;
27543;SDS011;17996;51.056;3.656;2023-02-03T04:11:26;12.05;;;3.85;;
27543;SDS011;17996;51.056;3.656;2023-02-03T04:14:11;6.10;;;2.00;;
27543;SDS011;17996;51.056;3.656;2023-02-03T04:16:36;12.10;;;2.30;;
27543;SDS011;17996;51.056;3.656;2023-02-03T04:19:02;8.50;;;2.05;;
27543;SDS011;17996;51.056;3.656;2023-02-03T04:21:28;12.70;;;2.63;;
27543;SDS011;17996;51.056;3.656;2023-02-03T04:23:53;15.60;;;2.80;;
27543;SDS011;17996;51.056;3.656;2023-02-03T04:26:20;7.35;;;2.13;;
27543;SDS011;17996;51.056;3.656;2023-02-03T04:28:46;10.27;;;2.60;;
27543;SDS011;17996;51.056;3.656;2023-02-03T04:31:12;12.88;;;2.40;;
27543;SDS011;17996;51.056;3.656;2023-02-03T04:33:37;17.23;;;3.08;;
27543;SDS011;17996;51.056;3.656;2023-02-03T04:36:03;10.98;;;2.20;;
27543;SDS011;17996;51.056;3.656;2023-02-03T04:38:29;10.60;;;2.38;;
27543;SDS011;17996;51.056;3.656;2023-02-03T04:40:55;13.77;;;2.95;;
27543;SDS011;17996;51.056;3.656;2023-02-03T04:43:20;11.57;;;3.03;;
27543;SDS011;17996;51.056;3.656;2023-02-03T04:45:46;5.47;;;1.70;;
27543;SDS011;17996;51.056;3.656;2023-02-03T04:48:11;13.07;;;2.40;;
27543;SDS011;17996;51.056;3.656;2023-02-03T04:50:37;15.85;;;3.08;;
27543;SDS011;17996;51.056;3.656;2023-02-03T04:53:03;13.70;;;2.58;;
27543;SDS011;17996;51.056;3.656;2023-02-03T04:55:28;14.48;;;2.65;;
27543;SDS011;17996;51.056;3.656;2023-02-03T04:57:55;12.73;;;2.55;;
27543;SDS011;17996;51.056;3.656;2023-02-03T05:00:21;12.93;;;2.40;;
27543;SDS011;17996;51.056;3.656;2023-02-03T05:02:46;11.05;;;2.20;;
27543;SDS011;17996;51.056;3.656;2023-02-03T05:05:12;13.38;;;2.60;;
27543;SDS011;17996;51.056;3.656;2023-02-03T05:07:38;9.18;;;2.45;;
27543;SDS011;17996;51.056;3.656;2023-02-03T05:10:03;12.05;;;2.65;;
27543;SDS011;17996;51.056;3.656;2023-02-03T05:12:29;13.35;;;2.58;;
27543;SDS011;17996;51.056;3.656;2023-02-03T05:14:55;11.52;;;2.70;;
27543;SDS011;17996;51.056;3.656;2023-02-03T05:17:20;14.07;;;3.28;;
27543;SDS011;17996;51.056;3.656;2023-02-03T05:19:46;14.40;;;3.03;;
27543;SDS011;17996;51.056;3.656;2023-02-03T05:22:12;14.93;;;2.50;;
27543;SDS011;17996;51.056;3.656;2023-02-03T05:24:37;11.35;;;1.90;;
27543;SDS011;17996;51.056;3.656;2023-02-03T05:27:03;10.77;;;2.17;;
27543;SDS011;17996;51.056;3.656;2023-02-03T05:29:29;9.25;;;2.10;;
27543;SDS011;17996;51.056;3.656;2023-02-03T05:31:54;9.38;;;2.00;;
27543;SDS011;17996;51.056;3.656;2023-02-03T05:34:20;8.30;;;2.78;;
27543;SDS011;17996;51.056;3.656;2023-02-03T05:36:45;11.82;;;2.17;;
27543;SDS011;17996;51.056;3.656;2023-02-03T05:39:11;12.75;;;3.15;;
27543;SDS011;17996;51.056;3.656;2023-02-03T05:41:37;12.85;;;2.30;;
27543;SDS011;17996;51.056;3.656;2023-02-03T05:44:24;8.82;;;2.13;;
27543;SDS011;17996;51.056;3.656;2023-02-03T05:46:52;8.60;;;2.25;;
27543;SDS011;17996;51.056;3.656;2023-02-03T05:49:20;9.88;;;2.17;;
27543;SDS011;17996;51.056;3.656;2023-02-03T05:51:47;10.93;;;2.47;;
27543;SDS011;17996;51.056;3.656;2023-02-03T05:54:13;11.52;;;2.13;;
27543;SDS011;17996;51.056;3.656;2023-02-03T05:56:39;7.45;;;2.03;;
27543;SDS011;17996;51.056;3.656;2023-02-03T05:59:05;7.28;;;1.90;;
27543;SDS011;17996;51.056;3.656;2023-02-03T06:01:31;17.90;;;2.63;;
27543;SDS011;17996;51.056;3.656;2023-02-03T06:03:58;6.00;;;2.30;;
27543;SDS011;17996;51.056;3.656;2023-02-03T06:06:24;5.38;;;2.10;;
27543;SDS011;17996;51.056;3.656;2023-02-03T06:08:51;11.60;;;2.20;;
27543;SDS011;17996;51.056;3.656;2023-02-03T06:11:20;12.98;;;2.10;;
27543;SDS011;17996;51.056;3.656;2023-02-03T06:13:48;14.27;;;2.55;;
27543;SDS011;17996;51.056;3.656;2023-02-03T06:16:14;15.65;;;2.55;;
27543;SDS011;17996;51.056;3.656;2023-02-03T06:18:40;11.25;;;2.83;;
27543;SDS011;17996;51.056;3.656;2023-02-03T06:21:05;10.73;;;2.88;;
27543;SDS011;17996;51.056;3.656;2023-02-03T06:23:31;10.98;;;1.92;;
27543;SDS011;17996;51.056;3.656;2023-02-03T06:25:57;12.82;;;2.17;;
27543;SDS011;17996;51.056;3.656;2023-02-03T06:28:24;10.38;;;2.72;;
27543;SDS011;17996;51.056;3.656;2023-02-03T06:30:50;8.18;;;2.17;;
27543;SDS011;17996;51.056;3.656;2023-02-03T06:33:17;14.20;;;2.80;;
27543;SDS011;17996;51.056;3.656;2023-02-03T06:35:46;10.93;;;2.55;;
27543;SDS011;17996;51.056;3.656;2023-02-03T06:38:11;16.88;;;3.15;;
27543;SDS011;17996;51.056;3.656;2023-02-03T06:40:37;14.52;;;2.72;;
27543;SDS011;17996;51.056;3.656;2023-02-03T06:43:03;13.93;;;2.53;;
27543;SDS011;17996;51.056;3.656;2023-02-03T06:45:29;12.40;;;2.90;;
27543;SDS011;17996;51.056;3.656;2023-02-03T06:47:54;17.60;;;3.40;;
27543;SDS011;17996;51.056;3.656;2023-02-03T06:50:20;14.30;;;2.83;;
27543;SDS011;17996;51.056;3.656;2023-02-03T06:52:47;8.93;;;2.50;;
27543;SDS011;17996;51.056;3.656;2023-02-03T06:55:14;10.60;;;2.70;;
27543;SDS011;17996;51.056;3.656;2023-02-03T06:57:43;10.75;;;2.28;;
27543;SDS011;17996;51.056;3.656;2023-02-03T07:00:11;10.27;;;1.85;;
27543;SDS011;17996;51.056;3.656;2023-02-03T07:02:37;11.65;;;2.20;;
27543;SDS011;17996;51.056;3.656;2023-02-03T07:05:04;11.23;;;2.30;;
27543;SDS011;17996;51.056;3.656;2023-02-03T07:07:30;9.27;;;2.58;;
27543;SDS011;17996;51.056;3.656;2023-02-03T07:09:56;13.13;;;2.30;;
27543;SDS011;17996;51.056;3.656;2023-02-03T07:12:22;17.05;;;2.35;;
27543;SDS011;17996;51.056;3.656;2023-02-03T07:14:48;10.07;;;2.20;;
27543;SDS011;17996;51.056;3.656;2023-02-03T07:17:13;12.18;;;2.50;;
27543;SDS011;17996;51.056;3.656;2023-02-03T07:19:39;13.75;;;2.78;;
27543;SDS011;17996;51.056;3.656;2023-02-03T07:22:05;17.55;;;3.22;;
27543;SDS011;17996;51.056;3.656;2023-02-03T07:24:30;19.05;;;3.25;;
27543;SDS011;17996;51.056;3.656;2023-02-03T07:26:56;16.42;;;3.53;;
27543;SDS011;17996;51.056;3.656;2023-02-03T07:29:22;11.07;;;2.72;;
27543;SDS011;17996;51.056;3.656;2023-02-03T07:31:47;13.20;;;2.55;;
27543;SDS011;17996;51.056;3.656;2023-02-03T07:34:13;7.75;;;2.72;;
27543;SDS011;17996;51.056;3.656;2023-02-03T07:36:39;14.25;;;2.42;;
27543;SDS011;17996;51.056;3.656;2023-02-03T07:39:05;15.75;;;3.33;;
27543;SDS011;17996;51.056;3.656;2023-02-03T07:41:31;10.27;;;2.60;;
27543;SDS011;17996;51.056;3.656;2023-02-03T07:43:56;22.70;;;3.67;;
27543;SDS011;17996;51.056;3.656;2023-02-03T07:46:22;9.82;;;2.40;;
27543;SDS011;17996;51.056;3.656;2023-02-03T07:48:48;11.27;;;2.20;;
27543;SDS011;17996;51.056;3.656;2023-02-03T07:51:13;11.10;;;2.45;;
27543;SDS011;17996;51.056;3.656;2023-02-03T07:53:39;9.90;;;2.28;;
27543;SDS011;17996;51.056;3.656;2023-02-03T07:56:05;8.82;;;2.33;;
27543;SDS011;17996;51.056;3.656;2023-02-03T07:58:30;9.00;;;2.75;;
27543;SDS011;17996;51.056;3.656;2023-02-03T08:00:57;9.25;;;2.30;;
27543;SDS011;17996;51.056;3.656;2023-02-03T08:03:23;6.35;;;2.15;;
27543;SDS011;17996;51.056;3.656;2023-02-03T08:05:49;17.60;;;2.67;;
27543;SDS011;17996;51.056;3.656;2023-02-03T08:08:16;11.32;;;2.50;;
27543;SDS011;17996;51.056;3.656;2023-02-03T08:10:41;11.82;;;2.00;;
27543;SDS011;17996;51.056;3.656;2023-02-03T08:13:07;11.85;;;2.47;;
27543;SDS011;17996;51.056;3.656;2023-02-03T08:15:33;6.10;;;2.38;;
27543;SDS011;17996;51.056;3.656;2023-02-03T08:17:58;17.20;;;3.42;;
27543;SDS011;17996;51.056;3.656;2023-02-03T08:20:24;8.32;;;2.25;;
27543;SDS011;17996;51.056;3.656;2023-02-03T08:22:50;9.80;;;2.72;;
27543;SDS011;17996;51.056;3.656;2023-02-03T08:25:16;13.13;;;2.10;;
27543;SDS011;17996;51.056;3.656;2023-02-03T08:27:42;11.77;;;3.28;;
27543;SDS011;17996;51.056;3.656;2023-02-03T08:30:09;11.77;;;2.15;;
27543;SDS011;17996;51.056;3.656;2023-02-03T08:32:37;9.95;;;2.58;;
27543;SDS011;17996;51.056;3.656;2023-02-03T08:35:03;13.60;;;2.40;;
27543;SDS011;17996;51.056;3.656;2023-02-03T08:37:29;9.07;;;2.28;;
27543;SDS011;17996;51.056;3.656;2023-02-03T08:39:56;15.73;;;3.33;;
27543;SDS011;17996;51.056;3.656;2023-02-03T08:42:22;14.30;;;3.20;;
27543;SDS011;17996;51.056;3.656;2023-02-03T08:44:48;10.07;;;2.40;;
27543;SDS011;17996;51.056;3.656;2023-02-03T08:47:14;10.65;;;2.45;;
27543;SDS011;17996;51.056;3.656;2023-02-03T08:49:40;13.13;;;2.92;;
27543;SDS011;17996;51.056;3.656;2023-02-03T08:52:06;9.00;;;2.70;;
27543;SDS011;17996;51.056;3.656;2023-02-03T08:54:35;11.55;;;3.38;;
27543;SDS011;17996;51.056;3.656;2023-02-03T08:57:01;9.18;;;2.55;;
27543;SDS011;17996;51.056;3.656;2023-02-03T08:59:26;8.75;;;2.58;;
27543;SDS011;17996;51.056;3.656;2023-02-03T09:01:53;12.15;;;2.70;;
27543;SDS011;17996;51.056;3.656;2023-02-03T09:04:19;15.18;;;3.08;;
27543;SDS011;17996;51.056;3.656;2023-02-03T09:06:49;11.60;;;2.97;;
27543;SDS011;17996;51.056;3.656;2023-02-03T09:09:21;10.18;;;2.63;;
27543;SDS011;17996;51.056;3.656;2023-02-03T09:11:47;12.07;;;3.20;;
27543;SDS011;17996;51.056;3.656;2023-02-03T09:14:13;10.60;;;3.17;;
27543;SDS011;17996;51.056;3.656;2023-02-03T09:16:39;14.07;;;3.42;;
27543;SDS011;17996;51.056;3.656;2023-02-03T09:19:05;14.77;;;3.10;;
27543;SDS011;17996;51.056;3.656;2023-02-03T09:21:31;12.73;;;2.90;;
27543;SDS011;17996;51.056;3.656;2023-02-03T09:24:01;10.75;;;3.10;;
27543;SDS011;17996;51.056;3.656;2023-02-03T09:26:27;14.65;;;2.97;;
27543;SDS011;17996;51.056;3.656;2023-02-03T09:28:53;12.13;;;2.80;;
27543;SDS011;17996;51.056;3.656;2023-02-03T09:31:19;8.68;;;2.92;;
27543;SDS011;17996;51.056;3.656;2023-02-03T09:33:44;15.93;;;3.72;;
27543;SDS011;17996;51.056;3.656;2023-02-03T09:36:10;8.32;;;2.42;;
27543;SDS011;17996;51.056;3.656;2023-02-03T09:38:37;14.23;;;2.92;;
27543;SDS011;17996;51.056;3.656;2023-02-03T09:41:10;9.35;;;2.53;;
27543;SDS011;17996;51.056;3.656;2023-02-03T09:43:58;11.75;;;3.05;;
27543;SDS011;17996;51.056;3.656;2023-02-03T09:47:09;10.75;;;3.03;;
27543;SDS011;17996;51.056;3.656;2023-02-03T09:49:40;9.98;;;2.58;;
27543;SDS011;17996;51.056;3.656;2023-02-03T09:52:20;11.90;;;2.65;;
27543;SDS011;17996;51.056;3.656;2023-02-03T09:54:57;16.85;;;3.33;;
27543;SDS011;17996;51.056;3.656;2023-02-03T09:57:26;10.27;;;3.20;;
27543;SDS011;17996;51.056;3.656;2023-02-03T09:59:55;11.65;;;2.88;;
27543;SDS011;17996;51.056;3.656;2023-02-03T10:08:19;14.70;;;3.15;;
27543;SDS011;17996;51.056;3.656;2023-02-03T10:10:57;15.50;;;3.40;;
27543;SDS011;17996;51.056;3.656;2023-02-03T10:18:54;14.85;;;3.08;;
27543;SDS011;17996;51.056;3.656;2023-02-03T10:24:24;11.43;;;2.80;;
27543;SDS011;17996;51.056;3.656;2023-02-03T10:27:19;15.18;;;3.20;;
27543;SDS011;17996;51.056;3.656;2023-02-03T10:29:53;13.25;;;3.38;;
27543;SDS011;17996;51.056;3.656;2023-02-03T10:32:44;17.60;;;3.30;;
27543;SDS011;17996;51.056;3.656;2023-02-03T10:35:13;12.45;;;3.10;;
27543;SDS011;17996;51.056;3.656;2023-02-03T10:37:49;10.93;;;2.83;;
27543;SDS011;17996;51.056;3.656;2023-02-03T10:40:19;13.23;;;2.53;;
27543;SDS011;17996;51.056;3.656;2023-02-03T10:42:48;9.73;;;2.50;;
27543;SDS011;17996;51.056;3.656;2023-02-03T10:45:35;10.93;;;2.88;;
27543;SDS011;17996;51.056;3.656;2023-02-03T10:48:03;15.73;;;3.58;;
27543;SDS011;17996;51.056;3.656;2023-02-03T10:50:31;11.30;;;2.83;;
27543;SDS011;17996;51.056;3.656;2023-02-03T10:53:20;8.73;;;2.35;;
27543;SDS011;17996;51.056;3.656;2023-02-03T10:55:47;9.85;;;2.65;;
27543;SDS011;17996;51.056;3.656;2023-02-03T11:00:43;7.05;;;2.33;;
27543;SDS011;17996;51.056;3.656;2023-02-03T11:05:35;10.27;;;2.83;;
27543;SDS011;17996;51.056;3.656;2023-02-03T11:08:00;13.90;;;3.60;;
27543;SDS011;17996;51.056;3.656;2023-02-03T11:10:36;7.45;;;2.70;;
27543;SDS011;17996;51.056;3.656;2023-02-03T11:13:12;13.00;;;2.67;;
27543;SDS011;17996;51.056;3.656;2023-02-03T11:27:13;15.57;;;2.97;;
27543;SDS011;17996;51.056;3.656;2023-02-03T11:29:43;13.95;;;2.58;;
27543;SDS011;17996;51.056;3.656;2023-02-03T11:32:34;13.57;;;2.92;;
27543;SDS011;17996;51.056;3.656;2023-02-03T11:35:34;9.13;;;2.38;;
27543;SDS011;17996;51.056;3.656;2023-02-03T11:37:56;7.03;;;2.13;;
27543;SDS011;17996;51.056;3.656;2023-02-03T11:48:05;8.52;;;2.63;;
27543;SDS011;17996;51.056;3.656;2023-02-03T11:56:43;10.25;;;2.38;;
27543;SDS011;17996;51.056;3.656;2023-02-03T12:02:36;8.05;;;1.95;;
27543;SDS011;17996;51.056;3.656;2023-02-03T12:05:30;9.32;;;1.77;;
27543;SDS011;17996;51.056;3.656;2023-02-03T12:11:18;7.55;;;1.45;;
27543;SDS011;17996;51.056;3.656;2023-02-03T12:30:43;8.77;;;2.20;;
27543;SDS011;17996;51.056;3.656;2023-02-03T12:33:22;11.75;;;2.33;;
27543;SDS011;17996;51.056;3.656;2023-02-03T12:41:37;7.55;;;2.13;;
27543;SDS011;17996;51.056;3.656;2023-02-03T12:44:17;8.15;;;2.25;;
27543;SDS011;17996;51.056;3.656;2023-02-03T12:46:55;6.20;;;1.73;;
27543;SDS011;17996;51.056;3.656;2023-02-03T12:49:55;7.53;;;1.80;;
27543;SDS011;17996;51.056;3.656;2023-02-03T12:52:25;11.88;;;2.78;;
27543;SDS011;17996;51.056;3.656;2023-02-03T12:54:58;11.27;;;2.08;;
27543;SDS011;17996;51.056;3.656;2023-02-03T12:58:26;5.22;;;1.67;;
27543;SDS011;17996;51.056;3.656;2023-02-03T13:03:26;7.55;;;2.13;;
27543;SDS011;17996;51.056;3.656;2023-02-03T13:11:07;7.75;;;1.92;;
27543;SDS011;17996;51.056;3.656;2023-02-03T13:13:56;7.97;;;1.77;;
27543;SDS011;17996;51.056;3.656;2023-02-03T13:16:43;7.43;;;2.00;;
27543;SDS011;17996;51.056;3.656;2023-02-03T13:19:16;10.70;;;2.40;;
27543;SDS011;17996;51.056;3.656;2023-02-03T13:21:49;11.27;;;2.33;;
27543;SDS011;17996;51.056;3.656;2023-02-03T13:24:15;11.30;;;2.70;;
27543;SDS011;17996;51.056;3.656;2023-02-03T13:43:29;9.35;;;2.58;;
27543;SDS011;17996;51.056;3.656;2023-02-03T13:46:00;8.90;;;2.78;;
27543;SDS011;17996;51.056;3.656;2023-02-03T13:48:31;10.15;;;2.85;;
27543;SDS011;17996;51.056;3.656;2023-02-03T13:51:31;8.05;;;2.53;;
27543;SDS011;17996;51.056;3.656;2023-02-03T13:53:57;7.28;;;1.83;;
27543;SDS011;17996;51.056;3.656;2023-02-03T13:56:29;9.38;;;2.47;;
27543;SDS011;17996;51.056;3.656;2023-02-03T14:01:40;9.43;;;2.53;;
27543;SDS011;17996;51.056;3.656;2023-02-03T14:04:07;11.02;;;3.28;;
27543;SDS011;17996;51.056;3.656;2023-02-03T14:09:54;8.73;;;2.50;;
27543;SDS011;17996;51.056;3.656;2023-02-03T14:20:00;12.57;;;2.83;;
27543;SDS011;17996;51.056;3.656;2023-02-03T14:22:28;7.93;;;2.65;;
27543;SDS011;17996;51.056;3.656;2023-02-03T14:24:55;6.05;;;2.60;;
27543;SDS011;17996;51.056;3.656;2023-02-03T14:27:28;7.20;;;2.15;;
27543;SDS011;17996;51.056;3.656;2023-02-03T14:30:05;9.32;;;3.13;;
27543;SDS011;17996;51.056;3.656;2023-02-03T14:35:20;12.60;;;2.60;;
27543;SDS011;17996;51.056;3.656;2023-02-03T14:38:03;9.50;;;3.28;;
27543;SDS011;17996;51.056;3.656;2023-02-03T14:40:49;10.43;;;2.63;;
27543;SDS011;17996;51.056;3.656;2023-02-03T14:59:55;8.52;;;2.38;;
27543;SDS011;17996;51.056;3.656;2023-02-03T15:02:26;9.50;;;2.45;;
27543;SDS011;17996;51.056;3.656;2023-02-03T15:07:43;7.72;;;2.53;;
27543;SDS011;17996;51.056;3.656;2023-02-03T15:10:20;12.18;;;2.20;;
27543;SDS011;17996;51.056;3.656;2023-02-03T15:12:53;12.05;;;2.95;;
27543;SDS011;17996;51.056;3.656;2023-02-03T15:15:26;9.63;;;2.15;;
27543;SDS011;17996;51.056;3.656;2023-02-03T15:17:54;10.30;;;2.75;;
27543;SDS011;17996;51.056;3.656;2023-02-03T15:20:30;20.40;;;3.47;;
27543;SDS011;17996;51.056;3.656;2023-02-03T15:22:56;9.70;;;2.35;;
27543;SDS011;17996;51.056;3.656;2023-02-03T15:25:22;9.77;;;2.85;;
27543;SDS011;17996;51.056;3.656;2023-02-03T15:27:49;9.13;;;3.67;;
27543;SDS011;17996;51.056;3.656;2023-02-03T15:30:16;9.73;;;2.85;;
27543;SDS011;17996;51.056;3.656;2023-02-03T15:35:27;11.82;;;3.10;;
27543;SDS011;17996;51.056;3.656;2023-02-03T15:37:57;7.75;;;3.17;;
27543;SDS011;17996;51.056;3.656;2023-02-03T15:40:37;8.43;;;2.70;;
27543;SDS011;17996;51.056;3.656;2023-02-03T15:43:20;12.55;;;2.85;;
27543;SDS011;17996;51.056;3.656;2023-02-03T15:51:21;6.95;;;2.67;;
27543;SDS011;17996;51.056;3.656;2023-02-03T15:53:54;11.13;;;2.85;;
27543;SDS011;17996;51.056;3.656;2023-02-03T15:56:27;10.32;;;3.33;;
27543;SDS011;17996;51.056;3.656;2023-02-03T15:59:03;8.48;;;3.30;;
27543;SDS011;17996;51.056;3.656;2023-02-03T16:01:30;6.13;;;2.60;;
27543;SDS011;17996;51.056;3.656;2023-02-03T16:03:56;8.98;;;3.15;;
27543;SDS011;17996;51.056;3.656;2023-02-03T16:06:31;8.38;;;3.45;;
27543;SDS011;17996;51.056;3.656;2023-02-03T16:09:04;9.05;;;3.35;;
27543;SDS011;17996;51.056;3.656;2023-02-03T16:11:32;12.40;;;3.50;;
27543;SDS011;17996;51.056;3.656;2023-02-03T16:14:00;6.47;;;3.10;;
27543;SDS011;17996;51.056;3.656;2023-02-03T16:19:11;10.98;;;3.03;;
27543;SDS011;17996;51.056;3.656;2023-02-03T16:29:46;12.60;;;4.20;;
27543;SDS011;17996;51.056;3.656;2023-02-03T16:32:30;8.45;;;3.80;;
27543;SDS011;17996;51.056;3.656;2023-02-03T16:35:15;18.90;;;5.97;;
27543;SDS011;17996;51.056;3.656;2023-02-03T16:38:15;12.95;;;4.57;;
27543;SDS011;17996;51.056;3.656;2023-02-03T16:41:00;14.07;;;4.28;;
27543;SDS011;17996;51.056;3.656;2023-02-03T16:43:46;14.02;;;3.60;;
27543;SDS011;17996;51.056;3.656;2023-02-03T16:46:31;10.88;;;3.55;;
27543;SDS011;17996;51.056;3.656;2023-02-03T16:49:15;8.07;;;3.10;;
27543;SDS011;17996;51.056;3.656;2023-02-03T16:51:59;9.85;;;3.42;;
27543;SDS011;17996;51.056;3.656;2023-02-03T16:54:25;15.43;;;4.07;;
27543;SDS011;17996;51.056;3.656;2023-02-03T16:56:52;11.40;;;3.78;;
27543;SDS011;17996;51.056;3.656;2023-02-03T16:59:18;15.27;;;4.63;;
27543;SDS011;17996;51.056;3.656;2023-02-03T17:01:43;14.80;;;6.20;;
27543;SDS011;17996;51.056;3.656;2023-02-03T17:04:09;17.75;;;7.63;;
27543;SDS011;17996;51.056;3.656;2023-02-03T17:06:39;17.27;;;6.32;;
27543;SDS011;17996;51.056;3.656;2023-02-03T17:09:05;9.55;;;4.78;;
27543;SDS011;17996;51.056;3.656;2023-02-03T17:11:31;15.65;;;4.70;;
27543;SDS011;17996;51.056;3.656;2023-02-03T17:13:57;18.15;;;5.95;;
27543;SDS011;17996;51.056;3.656;2023-02-03T17:16:24;9.52;;;5.05;;
27543;SDS011;17996;51.056;3.656;2023-02-03T17:18:51;10.43;;;5.03;;
27543;SDS011;17996;51.056;3.656;2023-02-03T17:21:22;13.20;;;4.45;;
27543;SDS011;17996;51.056;3.656;2023-02-03T17:23:49;14.55;;;4.97;;
27543;SDS011;17996;51.056;3.656;2023-02-03T17:26:15;18.83;;;5.65;;
27543;SDS011;17996;51.056;3.656;2023-02-03T17:28:41;16.10;;;5.47;;
27543;SDS011;17996;51.056;3.656;2023-02-03T17:31:09;13.52;;;6.13;;
27543;SDS011;17996;51.056;3.656;2023-02-03T17:33:37;13.90;;;5.80;;
27543;SDS011;17996;51.056;3.656;2023-02-03T17:36:04;12.80;;;5.47;;
27543;SDS011;17996;51.056;3.656;2023-02-03T17:38:34;18.48;;;5.25;;
27543;SDS011;17996;51.056;3.656;2023-02-03T17:41:11;11.02;;;4.80;;
27543;SDS011;17996;51.056;3.656;2023-02-03T17:43:41;9.85;;;5.43;;
27543;SDS011;17996;51.056;3.656;2023-02-03T17:46:08;15.10;;;5.57;;
27543;SDS011;17996;51.056;3.656;2023-02-03T17:48:35;15.15;;;5.32;;
27543;SDS011;17996;51.056;3.656;2023-02-03T17:51:08;14.48;;;5.40;;
27543;SDS011;17996;51.056;3.656;2023-02-03T17:53:37;16.83;;;5.53;;
27543;SDS011;17996;51.056;3.656;2023-02-03T17:56:05;16.58;;;5.82;;
27543;SDS011;17996;51.056;3.656;2023-02-03T17:58:35;16.33;;;4.95;;
27543;SDS011;17996;51.056;3.656;2023-02-03T18:01:34;18.67;;;5.57;;
27543;SDS011;17996;51.056;3.656;2023-02-03T18:03:54;15.50;;;5.07;;